Time;durP1;ratioP1;P1;durP2;ratioP2;P2;SDS_P1;SDS_P2;PMS_P1;PMS_P2;Temp;Humidity;BMP_temperature;BMP_pressure;BME280_temperature;BME280_humidity;BME280_pressure;Samples;Min_cycle;Max_cycle;Signal;HPM_P1;HPM_P2
2023/12/09 00:01:19;;;;;;;11.77;10.57;;;8.90;99.90;;;;;;5131618;27;20163;-73
2023/12/09 00:03:45;;;;;;;11.97;10.73;;;9.00;99.90;;;;;;5137282;27;20234;-73
2023/12/09 00:06:10;;;;;;;12.93;11.57;;;9.00;99.90;;;;;;5137162;27;20626;-73
2023/12/09 00:08:36;;;;;;;13.33;11.77;;;9.00;99.90;;;;;;5137208;27;20543;-72
2023/12/09 00:11:02;;;;;;;14.33;11.13;;;9.10;99.90;;;;;;5124997;27;20254;-73
2023/12/09 00:13:28;;;;;;;12.40;11.10;;;9.00;99.90;;;;;;5116682;28;20899;-71
2023/12/09 00:15:53;;;;;;;12.27;11.00;;;8.90;99.90;;;;;;5116815;28;20571;-73
2023/12/09 00:18:19;;;;;;;11.00;9.27;;;8.70;99.90;;;;;;5116440;28;20172;-73
2023/12/09 00:20:44;;;;;;;13.37;10.33;;;8.80;99.90;;;;;;5126001;27;20191;-73
2023/12/09 00:23:10;;;;;;;13.60;9.77;;;8.90;99.90;;;;;;5137443;27;20160;-73
2023/12/09 00:25:36;;;;;;;10.60;9.60;;;8.80;99.90;;;;;;5135536;27;20186;-72
2023/12/09 00:28:01;;;;;;;12.57;11.20;;;8.80;99.90;;;;;;5125084;27;20207;-72
2023/12/09 00:30:27;;;;;;;10.60;9.50;;;8.90;99.90;;;;;;5122972;27;20203;-72
2023/12/09 00:32:53;;;;;;;11.80;9.90;;;9.00;99.90;;;;;;5137048;27;20165;-72
2023/12/09 00:35:19;;;;;;;15.97;11.63;;;8.90;99.90;;;;;;5136900;27;20197;-72
2023/12/09 00:37:44;;;;;;;11.53;10.33;;;8.80;99.90;;;;;;5136792;27;20163;-72
2023/12/09 00:40:10;;;;;;;13.67;10.13;;;8.90;99.90;;;;;;5132064;27;20184;-72
2023/12/09 00:42:36;;;;;;;13.00;10.83;;;9.00;99.90;;;;;;5116199;28;20631;-73
2023/12/09 00:45:02;;;;;;;12.90;11.70;;;9.00;99.90;;;;;;5115353;28;20446;-73
2023/12/09 00:47:27;;;;;;;10.77;9.50;;;9.00;99.90;;;;;;5115846;28;20255;-73
2023/12/09 00:49:53;;;;;;;13.53;12.13;;;9.00;99.90;;;;;;5117451;27;20584;-73
2023/12/09 00:52:19;;;;;;;12.53;10.67;;;8.90;99.90;;;;;;5136319;27;20169;-72
2023/12/09 00:54:44;;;;;;;11.80;10.10;;;8.90;99.90;;;;;;5136136;27;20462;-72
2023/12/09 00:57:10;;;;;;;13.33;11.37;;;8.90;99.90;;;;;;5135951;27;20178;-72
2023/12/09 00:59:35;;;;;;;12.30;10.50;;;8.90;99.90;;;;;;5135917;27;20631;-72
2023/12/09 01:02:01;;;;;;;15.50;12.67;;;8.80;99.90;;;;;;5116325;27;20191;-72
2023/12/09 01:04:26;;;;;;;13.37;11.97;;;8.70;99.90;;;;;;5115430;28;20167;-72
2023/12/09 01:06:52;;;;;;;10.90;9.80;;;8.70;99.90;;;;;;5115414;28;20255;-72
2023/12/09 01:09:18;;;;;;;13.40;10.17;;;8.70;99.90;;;;;;5115325;28;20185;-72
2023/12/09 01:11:43;;;;;;;9.93;8.97;;;8.60;99.90;;;;;;5132464;27;20254;-72
2023/12/09 01:14:09;;;;;;;11.10;10.10;;;8.60;99.90;;;;;;5135756;27;20307;-72
2023/12/09 01:16:34;;;;;;;11.17;9.87;;;8.70;99.90;;;;;;5136071;27;20262;-70
2023/12/09 01:19:00;;;;;;;11.13;9.60;;;8.70;99.90;;;;;;5135982;27;20339;-70
2023/12/09 01:21:25;;;;;;;12.20;8.90;;;8.70;99.90;;;;;;5121196;27;20616;-70
2023/12/09 01:23:51;;;;;;;11.80;10.60;;;8.80;99.90;;;;;;5115155;28;20219;-70
2023/12/09 01:26:16;;;;;;;13.50;10.07;;;8.80;99.90;;;;;;5115257;28;20196;-71
2023/12/09 01:28:42;;;;;;;10.73;9.63;;;8.70;99.90;;;;;;5115312;28;20197;-70
2023/12/09 01:31:08;;;;;;;10.63;9.53;;;8.60;99.90;;;;;;5125869;27;20689;-71
2023/12/09 01:33:33;;;;;;;11.03;9.90;;;8.60;99.90;;;;;;5131220;27;20648;-70
2023/12/09 01:35:59;;;;;;;12.93;10.70;;;8.60;99.90;;;;;;5136130;27;20178;-71
2023/12/09 01:38:24;;;;;;;11.60;8.90;;;8.60;99.90;;;;;;5135494;27;20164;-71
2023/12/09 01:40:54;;;;;;;13.97;10.67;;;8.60;99.90;;;;;;5126263;27;20169;-73
2023/12/09 01:43:20;;;;;;;11.43;8.73;;;8.70;99.90;;;;;;5114952;28;20194;-71
2023/12/09 01:45:46;;;;;;;12.20;10.50;;;8.70;99.90;;;;;;5114745;28;20405;-71
2023/12/09 01:48:13;;;;;;;12.30;7.93;;;8.70;99.90;;;;;;5115140;28;20464;-71
2023/12/09 01:50:38;;;;;;;12.70;9.00;;;8.70;99.90;;;;;;5121906;27;20424;-72
2023/12/09 01:53:05;;;;;;;10.30;8.90;;;8.60;99.90;;;;;;5135376;27;20450;-73
2023/12/09 01:55:31;;;;;;;12.30;10.07;;;8.70;99.90;;;;;;5135158;27;20196;-72
2023/12/09 01:57:57;;;;;;;10.20;8.77;;;8.70;99.90;;;;;;5135077;27;20407;-73
2023/12/09 02:00:22;;;;;;;10.80;7.90;;;8.80;99.90;;;;;;5129971;27;20447;-73
2023/12/09 02:02:48;;;;;;;9.50;8.33;;;8.90;99.90;;;;;;5114395;28;20226;-73
2023/12/09 02:05:14;;;;;;;12.23;10.93;;;8.90;99.90;;;;;;5114463;28;20177;-73
2023/12/09 02:07:39;;;;;;;17.57;11.13;;;8.80;99.90;;;;;;5114419;28;20531;-73
2023/12/09 02:10:06;;;;;;;10.17;8.47;;;8.90;99.90;;;;;;5115816;27;20203;-72
2023/12/09 02:12:44;;;;;;;12.57;10.03;;;8.80;99.90;;;;;;5134827;27;20626;-72
2023/12/09 02:15:13;;;;;;;11.40;9.77;;;8.70;99.90;;;;;;5134990;27;20445;-72
2023/12/09 02:18:08;;;;;;;11.17;8.10;;;8.60;99.90;;;;;;5135043;27;20406;-72
2023/12/09 02:20:34;;;;;;;9.53;8.40;;;8.70;99.90;;;;;;5106830;27;20844;-75
2023/12/09 02:23:08;;;;;;;10.90;9.80;;;8.70;99.90;;;;;;5134841;27;20404;-73
2023/12/09 02:25:34;;;;;;;10.03;7.93;;;8.80;99.90;;;;;;5134689;27;20554;-73
2023/12/09 02:28:14;;;;;;;10.57;9.47;;;8.70;99.90;;;;;;5134578;27;20899;-72
2023/12/09 02:31:00;;;;;;;11.27;7.60;;;8.80;99.90;;;;;;5127564;27;20436;-73
2023/12/09 02:33:28;;;;;;;9.00;7.20;;;8.70;99.90;;;;;;5113773;28;20463;-72
2023/12/09 02:35:55;;;;;;;10.83;7.90;;;8.60;99.90;;;;;;5113831;28;20410;-72
2023/12/09 02:38:22;;;;;;;8.77;6.57;;;8.70;99.90;;;;;;5113771;28;20409;-70
2023/12/09 02:40:48;;;;;;;9.00;6.20;;;8.90;99.90;;;;;;5121705;27;20421;-70
2023/12/09 02:43:14;;;;;;;9.93;7.00;;;9.00;99.90;;;;;;5119387;27;20454;-70
2023/12/09 02:45:40;;;;;;;9.23;5.73;;;8.90;99.90;;;;;;5114053;28;20887;-70
2023/12/09 02:48:06;;;;;;;7.73;6.40;;;9.00;99.90;;;;;;5114057;28;20425;-70
2023/12/09 02:50:31;;;;;;;9.13;5.90;;;8.90;99.90;;;;;;5118737;27;20607;-70
2023/12/09 02:52:57;;;;;;;7.00;5.97;;;8.90;99.90;;;;;;5134283;27;20176;-72
2023/12/09 02:55:22;;;;;;;11.93;6.30;;;8.80;99.90;;;;;;5133911;27;20197;-72
2023/12/09 02:57:48;;;;;;;8.23;5.97;;;8.90;99.90;;;;;;5133989;27;20183;-70
2023/12/09 03:00:14;;;;;;;7.33;6.07;;;8.80;99.90;;;;;;5131474;27;20229;-72
2023/12/09 03:02:40;;;;;;;9.27;6.63;;;8.80;99.90;;;;;;5113866;28;20222;-72
2023/12/09 03:05:05;;;;;;;13.20;7.60;;;8.80;99.90;;;;;;5113733;28;20402;-72
2023/12/09 03:07:31;;;;;;;7.90;6.37;;;8.80;99.90;;;;;;5113358;28;20176;-72
2023/12/09 03:09:56;;;;;;;7.23;5.93;;;8.90;99.90;;;;;;5113316;28;20189;-73
2023/12/09 03:12:22;;;;;;;7.23;5.70;;;8.90;99.90;;;;;;5115461;28;20522;-70
2023/12/09 03:14:47;;;;;;;6.83;5.57;;;9.00;99.90;;;;;;5133719;28;20226;-70
2023/12/09 03:17:13;;;;;;;6.80;4.93;;;9.00;99.90;;;;;;5133997;28;20503;-70
2023/12/09 03:19:38;;;;;;;10.17;6.13;;;9.00;99.90;;;;;;5134225;27;20512;-71
2023/12/09 03:22:04;;;;;;;7.40;6.53;;;8.90;99.90;;;;;;5120073;27;20180;-70
2023/12/09 03:24:30;;;;;;;5.30;4.80;;;8.80;99.90;;;;;;5117664;28;20193;-70
2023/12/09 03:26:55;;;;;;;6.57;5.73;;;8.80;99.90;;;;;;5117404;28;20257;-70
2023/12/09 03:29:21;;;;;;;8.63;6.10;;;8.80;99.90;;;;;;5117279;28;20227;-70
2023/12/09 03:31:48;;;;;;;11.53;6.20;;;8.70;99.90;;;;;;5132680;27;20232;-70
2023/12/09 03:34:13;;;;;;;11.80;7.43;;;8.50;99.90;;;;;;5137740;27;20202;-70
2023/12/09 03:36:39;;;;;;;11.13;6.10;;;8.40;99.90;;;;;;5138238;27;20886;-70
2023/12/09 03:39:06;;;;;;;12.53;6.97;;;8.50;99.90;;;;;;5137599;27;20195;-70
2023/12/09 03:41:32;;;;;;;8.43;6.10;;;8.60;99.90;;;;;;5124650;27;20411;-70
2023/12/09 03:43:58;;;;;;;8.87;6.17;;;8.60;99.90;;;;;;5117317;28;20425;-69
2023/12/09 03:46:23;;;;;;;8.90;5.80;;;8.60;99.90;;;;;;5117279;28;20406;-70
2023/12/09 03:48:49;;;;;;;7.73;6.43;;;8.60;99.90;;;;;;5117175;28;20665;-70
2023/12/09 03:51:14;;;;;;;11.67;6.93;;;8.60;99.90;;;;;;5127689;27;20255;-70
2023/12/09 03:53:43;;;;;;;9.77;7.43;;;8.40;99.90;;;;;;5137314;27;20179;-69
2023/12/09 03:56:12;;;;;;;8.63;6.20;;;8.40;99.90;;;;;;5137370;27;20694;-70
2023/12/09 03:58:38;;;;;;;10.87;6.37;;;8.30;99.90;;;;;;5137104;27;20510;-69
2023/12/09 04:01:04;;;;;;;10.53;6.87;;;8.20;99.90;;;;;;5129122;22;20517;-73
2023/12/09 04:03:30;;;;;;;7.47;5.47;;;8.30;99.90;;;;;;5096212;28;20171;-73
2023/12/09 04:05:55;;;;;;;15.20;7.07;;;8.20;99.90;;;;;;5096754;28;20397;-73
2023/12/09 04:08:21;;;;;;;9.30;6.47;;;8.10;99.90;;;;;;5096414;28;20687;-73
2023/12/09 04:10:47;;;;;;;9.50;7.13;;;8.10;99.90;;;;;;5109816;28;20184;-72
2023/12/09 04:13:12;;;;;;;17.97;7.93;;;7.80;99.90;;;;;;5098466;28;20176;-72
2023/12/09 04:15:38;;;;;;;6.93;6.13;;;7.60;99.90;;;;;;5116998;28;20191;-72
2023/12/09 04:18:07;;;;;;;9.90;7.47;;;7.60;99.90;;;;;;5098169;28;20167;-72
2023/12/09 04:20:33;;;;;;;7.77;6.50;;;7.70;99.90;;;;;;5116235;28;20464;-73
2023/12/09 04:22:59;;;;;;;11.13;8.53;;;7.60;99.90;;;;;;5116591;28;20433;-72
2023/12/09 04:25:24;;;;;;;8.63;6.83;;;7.60;99.90;;;;;;5116223;28;20416;-72
2023/12/09 04:27:56;;;;;;;10.37;7.03;;;7.60;99.90;;;;;;5116399;28;20685;-72
2023/12/09 04:30:24;;;;;;;6.60;5.90;;;7.60;99.90;;;;;;5101935;28;20201;-72
2023/12/09 04:32:50;;;;;;;10.10;6.93;;;7.60;99.90;;;;;;5115636;28;20898;-73
2023/12/09 04:35:15;;;;;;;8.47;6.70;;;7.50;99.90;;;;;;5115525;28;20441;-73
2023/12/09 04:37:41;;;;;;;7.90;5.83;;;7.50;99.90;;;;;;5115973;28;20164;-73
2023/12/09 04:40:11;;;;;;;10.30;7.33;;;7.70;99.90;;;;;;5110646;28;20194;-73
2023/12/09 04:42:38;;;;;;;8.97;6.87;;;7.80;99.90;;;;;;5094265;28;20163;-73
2023/12/09 04:45:04;;;;;;;9.47;6.47;;;7.80;99.90;;;;;;5095395;28;20409;-73
2023/12/09 04:47:29;;;;;;;11.43;6.17;;;7.80;99.90;;;;;;5095560;28;20401;-72
2023/12/09 04:49:55;;;;;;;9.03;5.87;;;7.70;99.90;;;;;;5098611;28;20430;-74
2023/12/09 04:52:20;;;;;;;6.87;4.97;;;7.80;99.90;;;;;;5115860;28;20278;-74
2023/12/09 04:54:47;;;;;;;7.07;6.23;;;7.90;99.90;;;;;;5115745;28;20195;-74
2023/12/09 04:57:12;;;;;;;6.40;5.73;;;8.00;99.90;;;;;;5114151;28;20191;-74
2023/12/09 04:59:38;;;;;;;6.73;6.00;;;8.00;99.90;;;;;;5115464;28;20433;-74
2023/12/09 05:02:03;;;;;;;6.87;5.30;;;8.00;99.90;;;;;;5115504;28;20525;-74
2023/12/09 05:04:29;;;;;;;8.60;4.90;;;8.00;99.90;;;;;;5097122;28;20583;-73
2023/12/09 05:06:54;;;;;;;6.60;4.63;;;8.10;99.90;;;;;;5115956;28;20269;-73
2023/12/09 05:09:22;;;;;;;4.80;3.80;;;8.20;99.90;;;;;;5097066;28;20604;-73
2023/12/09 05:11:48;;;;;;;4.73;4.17;;;8.20;99.90;;;;;;5112515;28;20186;-73
2023/12/09 05:14:13;;;;;;;5.60;4.70;;;8.30;99.90;;;;;;5114725;28;20441;-73
2023/12/09 05:16:39;;;;;;;5.73;4.10;;;8.30;99.90;;;;;;5113858;28;20175;-73
2023/12/09 05:19:05;;;;;;;9.80;5.23;;;8.20;99.90;;;;;;5115136;28;20172;-73
2023/12/09 05:21:31;;;;;;;8.80;4.37;;;8.20;99.90;;;;;;5114951;28;20192;-73
2023/12/09 05:23:57;;;;;;;8.10;4.60;;;8.20;99.90;;;;;;5115243;28;20420;-72
2023/12/09 05:26:28;;;;;;;6.90;3.93;;;8.10;99.90;;;;;;5115295;28;20279;-73
2023/12/09 05:28:54;;;;;;;6.93;4.80;;;8.10;99.90;;;;;;5115277;28;20173;-73
2023/12/09 05:31:21;;;;;;;5.47;4.50;;;8.10;99.90;;;;;;5114684;28;20778;-73
2023/12/09 05:33:47;;;;;;;6.97;5.20;;;8.20;99.90;;;;;;5114661;28;20904;-73
2023/12/09 05:36:12;;;;;;;7.87;4.37;;;8.10;99.90;;;;;;5114725;28;20412;-74
2023/12/09 05:38:38;;;;;;;5.83;4.53;;;8.20;99.90;;;;;;5114926;28;20498;-73
2023/12/09 05:41:05;;;;;;;6.20;4.40;;;8.20;99.90;;;;;;5114575;27;20191;-73
2023/12/09 05:43:30;;;;;;;5.63;3.50;;;8.10;99.90;;;;;;5114319;28;20779;-73
2023/12/09 05:45:56;;;;;;;7.33;3.80;;;8.10;99.90;;;;;;5114103;28;20406;-73
2023/12/09 05:48:21;;;;;;;4.90;4.27;;;8.10;99.90;;;;;;5114824;28;20206;-73
2023/12/09 05:50:47;;;;;;;6.50;4.20;;;8.20;99.90;;;;;;5114349;28;20193;-72
2023/12/09 05:53:13;;;;;;;8.27;4.20;;;8.30;99.90;;;;;;5114721;28;20250;-73
2023/12/09 05:55:38;;;;;;;5.20;4.37;;;8.30;99.90;;;;;;5114371;28;20250;-73
2023/12/09 05:58:04;;;;;;;10.33;4.73;;;8.30;99.90;;;;;;5114444;28;20168;-72
2023/12/09 06:00:29;;;;;;;5.57;4.40;;;8.20;99.90;;;;;;5114056;28;20216;-73
2023/12/09 06:02:55;;;;;;;7.90;4.40;;;8.10;99.90;;;;;;5114233;28;20192;-73
2023/12/09 06:05:20;;;;;;;4.43;3.40;;;8.10;99.90;;;;;;5114226;28;20172;-73
2023/12/09 06:07:46;;;;;;;6.53;4.20;;;8.10;99.90;;;;;;5114160;28;20175;-72
2023/12/09 06:10:12;;;;;;;4.97;4.07;;;8.20;99.90;;;;;;5113911;28;20279;-72
2023/12/09 06:12:37;;;;;;;7.10;4.07;;;8.20;99.90;;;;;;5113997;28;20201;-73
2023/12/09 06:15:05;;;;;;;4.63;3.70;;;8.20;99.90;;;;;;5113940;28;20193;-73
2023/12/09 06:17:30;;;;;;;7.17;4.50;;;8.20;99.90;;;;;;5114257;28;20168;-73
2023/12/09 06:19:56;;;;;;;10.90;4.80;;;8.30;99.90;;;;;;5114137;28;20497;-73
2023/12/09 06:22:21;;;;;;;6.60;3.97;;;8.30;99.90;;;;;;5113832;28;20184;-73
2023/12/09 06:24:47;;;;;;;12.23;4.33;;;8.20;99.90;;;;;;5114117;28;20630;-73
2023/12/09 06:27:13;;;;;;;5.30;2.93;;;8.10;99.90;;;;;;5113366;28;20199;-73
2023/12/09 06:29:38;;;;;;;6.97;3.60;;;8.20;99.90;;;;;;5113320;28;20617;-73
2023/12/09 06:32:04;;;;;;;6.00;4.00;;;8.20;99.90;;;;;;5113690;28;20586;-73
2023/12/09 06:34:30;;;;;;;4.00;2.90;;;8.10;99.90;;;;;;5114009;28;20598;-73
2023/12/09 06:36:56;;;;;;;6.20;2.97;;;8.10;99.90;;;;;;5113672;28;20447;-73
2023/12/09 06:39:21;;;;;;;4.27;2.63;;;8.10;99.90;;;;;;5114130;28;20228;-73
2023/12/09 06:41:48;;;;;;;6.83;4.07;;;8.10;99.90;;;;;;5113614;28;20171;-73
2023/12/09 06:44:14;;;;;;;11.03;3.90;;;8.10;99.90;;;;;;5113727;28;20300;-73
2023/12/09 06:46:40;;;;;;;12.27;3.50;;;8.20;99.90;;;;;;5113486;28;20427;-73
2023/12/09 06:49:06;;;;;;;8.10;3.50;;;8.30;99.90;;;;;;5113465;28;20176;-73
2023/12/09 06:51:31;;;;;;;3.37;3.07;;;8.30;99.90;;;;;;5113321;28;20444;-73
2023/12/09 06:53:57;;;;;;;6.00;3.10;;;8.40;99.90;;;;;;5113365;28;20185;-73
2023/12/09 06:56:23;;;;;;;5.70;3.80;;;8.40;99.90;;;;;;5113298;28;20665;-73
2023/12/09 06:58:49;;;;;;;3.63;2.93;;;8.40;99.90;;;;;;5113393;28;20165;-72
2023/12/09 07:01:23;;;;;;;4.93;3.10;;;8.40;99.90;;;;;;5113046;28;20220;-73
2023/12/09 07:03:49;;;;;;;4.93;2.70;;;8.30;99.90;;;;;;5113391;28;20393;-73
2023/12/09 07:06:26;;;;;;;4.13;2.87;;;8.30;99.90;;;;;;5112869;28;20430;-72
2023/12/09 07:08:55;;;;;;;5.33;3.37;;;8.40;99.90;;;;;;5113599;28;20893;-73
2023/12/09 07:11:21;;;;;;;5.93;2.80;;;8.40;99.90;;;;;;5113179;28;20430;-73
2023/12/09 07:13:47;;;;;;;3.50;2.50;;;8.40;99.90;;;;;;5078116;28;20489;-73
2023/12/09 07:16:13;;;;;;;3.63;2.30;;;8.40;99.90;;;;;;5113196;28;20510;-73
2023/12/09 07:18:46;;;;;;;3.03;2.20;;;8.40;99.90;;;;;;5113200;28;20456;-73
2023/12/09 07:21:15;;;;;;;3.23;2.60;;;8.40;99.90;;;;;;5113355;28;20219;-73
2023/12/09 07:23:41;;;;;;;4.13;2.50;;;8.40;99.90;;;;;;5111963;28;20414;-73
2023/12/09 07:26:07;;;;;;;4.13;2.30;;;8.50;99.90;;;;;;5113275;28;20405;-73
2023/12/09 07:28:33;;;;;;;3.27;2.67;;;8.60;99.90;;;;;;5113299;28;20409;-73
2023/12/09 07:30:59;;;;;;;5.43;2.90;;;8.40;99.90;;;;;;5113114;28;20192;-72
2023/12/09 07:33:25;;;;;;;3.63;2.70;;;8.50;99.90;;;;;;5095367;28;20415;-72
2023/12/09 07:35:50;;;;;;;3.47;2.47;;;8.50;99.90;;;;;;5114742;28;20478;-73
2023/12/09 07:38:16;;;;;;;4.43;2.83;;;8.60;99.90;;;;;;5113145;28;20194;-74
2023/12/09 07:40:41;;;;;;;3.93;2.40;;;8.60;99.90;;;;;;5112939;28;20301;-73
2023/12/09 07:43:08;;;;;;;3.20;2.40;;;8.50;99.90;;;;;;5113247;28;20165;-73
2023/12/09 07:45:33;;;;;;;4.13;2.60;;;8.40;99.90;;;;;;5113161;28;20536;-73
2023/12/09 07:48:00;;;;;;;3.30;2.23;;;8.40;99.90;;;;;;5113693;28;20477;-73
2023/12/09 07:50:26;;;;;;;3.53;2.00;;;8.60;99.90;;;;;;5112995;28;20269;-73
2023/12/09 07:52:51;;;;;;;4.83;2.53;;;8.60;99.90;;;;;;5113083;28;20434;-74
2023/12/09 07:55:17;;;;;;;6.67;2.77;;;8.70;99.90;;;;;;5112856;28;20730;-73
2023/12/09 07:57:42;;;;;;;3.57;3.27;;;8.70;99.90;;;;;;5119567;28;20212;-73
2023/12/09 08:00:09;;;;;;;3.80;2.33;;;8.60;99.90;;;;;;5123812;27;20681;-73
2023/12/09 08:02:35;;;;;;;5.00;3.20;;;8.40;99.90;;;;;;5114759;28;20164;-75
2023/12/09 08:05:00;;;;;;;5.83;3.40;;;8.30;99.90;;;;;;5103892;28;20911;-74
2023/12/09 08:07:26;;;;;;;4.63;2.67;;;8.20;99.90;;;;;;5104389;28;20214;-73
2023/12/09 08:09:52;;;;;;;4.10;3.70;;;8.30;99.90;;;;;;5107230;28;20238;-73
2023/12/09 08:12:17;;;;;;;4.27;3.50;;;8.20;99.90;;;;;;5106884;28;20191;-73
2023/12/09 08:14:43;;;;;;;5.23;3.23;;;8.20;99.90;;;;;;5107248;28;20200;-73
2023/12/09 08:17:08;;;;;;;5.07;3.00;;;8.20;99.90;;;;;;5107369;27;20179;-75
2023/12/09 08:19:34;;;;;;;4.43;3.07;;;8.10;99.90;;;;;;5107496;27;20188;-74
2023/12/09 08:21:59;;;;;;;6.67;2.87;;;8.00;99.90;;;;;;5107234;27;20172;-75
2023/12/09 08:24:25;;;;;;;10.60;3.10;;;7.90;99.90;;;;;;5111659;27;20252;-74
2023/12/09 08:26:51;;;;;;;2.80;2.27;;;7.90;99.90;;;;;;5122315;27;20254;-74
2023/12/09 08:29:16;;;;;;;4.50;2.83;;;8.10;99.90;;;;;;5115953;28;20199;-74
2023/12/09 08:31:46;;;;;;;4.40;2.97;;;8.10;99.90;;;;;;5115982;28;20401;-73
2023/12/09 08:34:12;;;;;;;3.77;2.73;;;8.10;99.90;;;;;;5115853;28;20681;-73
2023/12/09 08:36:38;;;;;;;5.30;2.97;;;8.10;99.90;;;;;;5115940;28;20455;-73
2023/12/09 08:39:03;;;;;;;3.60;2.83;;;8.20;99.90;;;;;;5116477;28;20166;-73
2023/12/09 08:41:29;;;;;;;4.60;2.67;;;8.20;99.90;;;;;;5108853;28;20671;-74
2023/12/09 08:43:55;;;;;;;4.20;3.10;;;8.20;99.90;;;;;;5106011;28;20195;-76
2023/12/09 08:46:21;;;;;;;4.83;2.73;;;8.30;99.90;;;;;;5107012;27;20203;-74
2023/12/09 08:48:46;;;;;;;4.97;2.90;;;8.20;99.90;;;;;;5106423;27;20509;-74
2023/12/09 08:51:12;;;;;;;8.50;2.73;;;8.40;99.90;;;;;;5106640;27;20289;-73
2023/12/09 08:53:38;;;;;;;3.37;2.83;;;8.70;99.90;;;;;;5106994;27;20418;-73
2023/12/09 08:56:04;;;;;;;2.60;2.40;;;8.90;99.90;;;;;;5094055;27;20308;-71
2023/12/09 08:58:29;;;;;;;2.93;2.50;;;9.10;99.90;;;;;;5105986;27;20270;-70
2023/12/09 09:00:55;;;;;;;4.57;2.53;;;9.00;99.90;;;;;;5105806;28;20807;-70
2023/12/09 09:03:21;;;;;;;4.47;2.70;;;9.20;99.90;;;;;;5105930;28;20204;-70
2023/12/09 09:05:47;;;;;;;3.97;2.40;;;9.20;99.90;;;;;;5105623;28;20404;-71
2023/12/09 09:08:12;;;;;;;3.90;2.40;;;9.40;99.90;;;;;;5112554;28;20180;-72
2023/12/09 09:10:38;;;;;;;4.67;2.73;;;9.60;99.90;;;;;;5114954;28;20273;-71
2023/12/09 09:13:03;;;;;;;4.60;2.30;;;9.60;99.90;;;;;;5114421;28;20173;-72
2023/12/09 09:15:29;;;;;;;4.90;2.33;;;9.70;99.90;;;;;;5114896;28;20189;-69
2023/12/09 09:17:54;;;;;;;5.90;2.90;;;9.70;99.90;;;;;;5115807;28;20167;-70
2023/12/09 09:20:20;;;;;;;3.60;2.03;;;9.40;99.90;;;;;;5114930;28;20182;-71
2023/12/09 09:22:47;;;;;;;4.53;3.00;;;9.40;99.90;;;;;;5115176;28;20634;-72
2023/12/09 09:25:12;;;;;;;4.60;2.93;;;9.40;99.90;;;;;;5115294;28;20176;-72
2023/12/09 09:27:38;;;;;;;8.43;2.70;;;9.40;99.90;;;;;;5114252;28;20851;-70
2023/12/09 09:30:04;;;;;;;5.53;2.90;;;9.40;99.90;;;;;;5114944;28;20725;-72
2023/12/09 09:32:31;;;;;;;5.40;3.20;;;9.70;99.90;;;;;;5114768;28;20504;-70
2023/12/09 09:34:56;;;;;;;5.53;3.23;;;9.70;99.90;;;;;;5114983;28;20524;-70
2023/12/09 09:37:23;;;;;;;5.57;2.20;;;9.60;99.90;;;;;;5114772;28;20968;-70
2023/12/09 09:39:48;;;;;;;4.23;2.43;;;9.70;99.90;;;;;;5115056;28;20198;-70
2023/12/09 09:42:17;;;;;;;3.70;2.17;;;9.80;99.90;;;;;;5114682;28;20399;-70
2023/12/09 09:45:07;;;;;;;5.90;2.17;;;9.90;99.90;;;;;;5114704;28;20248;-70
2023/12/09 09:47:39;;;;;;;3.60;2.20;;;9.80;99.90;;;;;;5114768;28;20393;-71
2023/12/09 09:50:08;;;;;;;2.80;2.20;;;9.70;99.90;;;;;;5114454;28;20472;-68
2023/12/09 09:52:51;;;;;;;5.93;2.67;;;9.50;99.90;;;;;;5114497;28;20410;-71
2023/12/09 09:55:22;;;;;;;3.67;2.70;;;9.50;99.90;;;;;;5114622;28;20971;-72
2023/12/09 09:57:48;;;;;;;3.40;2.43;;;9.40;99.90;;;;;;5114577;28;20746;-70
2023/12/09 10:00:16;;;;;;;3.30;2.13;;;9.30;99.90;;;;;;5135799;22;20487;-70
2023/12/09 10:02:45;;;;;;;1.93;1.60;;;9.40;99.90;;;;;;5114532;28;20412;-69
2023/12/09 10:05:12;;;;;;;3.30;2.13;;;9.70;99.90;;;;;;5114378;28;20486;-69
2023/12/09 10:07:39;;;;;;;2.83;2.10;;;9.70;99.90;;;;;;5114282;28;20400;-71
2023/12/09 10:10:05;;;;;;;2.77;2.13;;;9.70;99.90;;;;;;5111435;28;20417;-72
2023/12/09 10:12:31;;;;;;;3.33;2.37;;;9.70;99.90;;;;;;5094167;28;20826;-70
2023/12/09 10:14:56;;;;;;;2.70;1.97;;;9.80;99.90;;;;;;5093780;28;20532;-71
2023/12/09 10:17:26;;;;;;;3.13;1.93;;;9.90;99.90;;;;;;5093817;28;20166;-70
2023/12/09 10:19:54;;;;;;;6.67;2.67;;;9.90;99.90;;;;;;5095338;28;20300;-71
2023/12/09 10:22:20;;;;;;;3.13;2.60;;;9.70;99.90;;;;;;5113833;28;20483;-70
2023/12/09 10:24:50;;;;;;;2.67;2.40;;;9.60;99.90;;;;;;5114303;28;20580;-70
2023/12/09 10:27:18;;;;;;;3.40;2.63;;;9.40;99.90;;;;;;5114180;28;20180;-70
2023/12/09 10:29:43;;;;;;;4.90;2.40;;;9.30;99.90;;;;;;5113658;28;20413;-70
2023/12/09 10:32:09;;;;;;;3.37;2.60;;;9.50;99.90;;;;;;5092686;28;20756;-70
2023/12/09 10:34:35;;;;;;;3.90;2.17;;;9.50;99.90;;;;;;5108228;28;20284;-71
2023/12/09 10:37:01;;;;;;;3.37;2.70;;;9.60;99.90;;;;;;5114005;28;20165;-73
2023/12/09 10:39:26;;;;;;;2.93;2.30;;;9.50;99.90;;;;;;5113866;28;20250;-71
2023/12/09 10:41:52;;;;;;;7.03;2.83;;;9.70;99.90;;;;;;5095853;28;20429;-72
2023/12/09 10:44:18;;;;;;;3.80;2.70;;;9.80;99.90;;;;;;5094100;28;20510;-72
2023/12/09 10:46:44;;;;;;;3.33;2.17;;;9.90;99.90;;;;;;5093272;28;20656;-69
2023/12/09 10:49:09;;;;;;;3.97;2.17;;;10.00;99.90;;;;;;5093247;28;20204;-69
2023/12/09 10:51:35;;;;;;;4.50;2.73;;;10.20;99.90;;;;;;5108241;28;20442;-69
2023/12/09 10:54:00;;;;;;;3.23;2.50;;;10.20;99.90;;;;;;5095166;28;20227;-70
2023/12/09 10:56:26;;;;;;;2.90;2.53;;;10.30;99.90;;;;;;5113465;28;20170;-70
2023/12/09 10:58:54;;;;;;;3.60;2.37;;;10.40;99.90;;;;;;5113719;28;20313;-73
2023/12/09 11:01:21;;;;;;;3.40;2.40;;;10.50;99.90;;;;;;5100252;28;20541;-72
2023/12/09 11:03:46;;;;;;;3.80;3.07;;;10.60;99.90;;;;;;5093055;28;20412;-71
2023/12/09 11:06:15;;;;;;;4.30;2.17;;;10.50;99.90;;;;;;5093007;28;20787;-71
2023/12/09 11:08:42;;;;;;;2.67;2.47;;;10.70;99.90;;;;;;5093330;28;20169;-71
2023/12/09 11:11:08;;;;;;;2.63;2.20;;;10.70;99.90;;;;;;5103866;28;20472;-71
2023/12/09 11:13:35;;;;;;;2.23;2.00;;;11.00;99.90;;;;;;5095107;28;20403;-71
2023/12/09 11:16:10;;;;;;;2.63;2.43;;;11.40;99.90;;;;;;5113504;28;20481;-70
2023/12/09 11:18:46;;;;;;;5.10;2.27;;;11.70;99.90;;;;;;5113192;28;20953;-71
2023/12/09 11:21:15;;;;;;;2.90;2.60;;;11.60;99.90;;;;;;5098474;28;20425;-71
2023/12/09 11:23:45;;;;;;;2.60;2.30;;;11.20;99.90;;;;;;5092905;28;20404;-71
2023/12/09 11:26:15;;;;;;;2.90;2.67;;;11.10;99.90;;;;;;5092928;28;20407;-70
2023/12/09 11:28:59;;;;;;;3.60;2.77;;;10.70;99.90;;;;;;5092714;28;20498;-70
2023/12/09 11:31:37;;;;;;;4.13;3.40;;;10.80;99.90;;;;;;5105800;28;20519;-70
2023/12/09 11:34:14;;;;;;;3.87;2.67;;;10.70;99.90;;;;;;5113583;28;20444;-70
2023/12/09 11:36:41;;;;;;;4.37;3.10;;;10.80;99.90;;;;;;5113396;28;20783;-70
2023/12/09 11:39:11;;;;;;;3.80;2.80;;;10.80;99.90;;;;;;5113168;28;20395;-70
2023/12/09 11:41:38;;;;;;;3.10;2.87;;;10.40;99.90;;;;;;5098321;28;20509;-70
2023/12/09 11:44:05;;;;;;;5.27;2.97;;;10.30;99.90;;;;;;5096567;28;20983;-70
2023/12/09 11:46:32;;;;;;;3.30;2.77;;;10.40;99.90;;;;;;5097082;28;20430;-71
2023/12/09 11:48:58;;;;;;;3.80;2.90;;;10.40;99.90;;;;;;5095560;28;20454;-69
2023/12/09 11:51:25;;;;;;;3.80;3.00;;;10.50;99.90;;;;;;5109409;28;20463;-70
2023/12/09 11:53:55;;;;;;;3.47;2.97;;;10.40;99.90;;;;;;5117979;28;20975;-68
2023/12/09 11:56:21;;;;;;;2.60;2.40;;;10.20;99.90;;;;;;5117279;28;20413;-69
2023/12/09 11:58:47;;;;;;;4.40;3.30;;;10.20;99.90;;;;;;5116969;28;20803;-69
2023/12/09 12:01:12;;;;;;;3.80;3.40;;;10.40;99.90;;;;;;5095077;28;20443;-69
2023/12/09 12:03:38;;;;;;;3.73;2.97;;;10.30;99.90;;;;;;5096534;28;20169;-69
2023/12/09 12:06:05;;;;;;;3.80;2.90;;;10.40;99.90;;;;;;5096350;28;20183;-70
2023/12/09 12:08:31;;;;;;;3.17;2.87;;;10.50;99.90;;;;;;5096522;28;20161;-70
2023/12/09 12:10:56;;;;;;;3.27;2.97;;;10.50;99.90;;;;;;5104821;28;20430;-70
2023/12/09 12:13:22;;;;;;;3.70;3.00;;;10.40;99.90;;;;;;5117157;28;20519;-70
2023/12/09 12:15:49;;;;;;;3.53;3.23;;;10.40;99.90;;;;;;5116574;28;20195;-70
2023/12/09 12:18:15;;;;;;;3.80;3.13;;;10.30;99.90;;;;;;5116804;28;20169;-71
2023/12/09 12:20:40;;;;;;;3.37;3.07;;;10.30;99.90;;;;;;5110211;28;20430;-70
2023/12/09 12:23:06;;;;;;;3.43;3.00;;;10.20;99.90;;;;;;5096365;28;20582;-72
2023/12/09 12:25:32;;;;;;;4.17;3.07;;;10.10;99.90;;;;;;5096006;28;20214;-72
2023/12/09 12:27:57;;;;;;;3.40;3.10;;;10.20;99.90;;;;;;5096180;28;20169;-71
2023/12/09 12:30:23;;;;;;;3.80;3.23;;;10.30;99.90;;;;;;5095585;28;20200;-72
2023/12/09 12:32:56;;;;;;;3.30;2.77;;;10.30;99.90;;;;;;5095886;28;20193;-72
2023/12/09 12:35:25;;;;;;;3.73;2.90;;;10.30;99.90;;;;;;5103656;28;21052;-71
2023/12/09 12:37:51;;;;;;;3.70;3.20;;;10.30;99.90;;;;;;5102489;28;20403;-73
2023/12/09 12:40:18;;;;;;;2.73;2.53;;;10.50;99.90;;;;;;5107243;28;20416;-72
2023/12/09 12:42:44;;;;;;;2.93;2.67;;;10.40;99.90;;;;;;5104401;28;20178;-73
2023/12/09 12:45:19;;;;;;;5.30;2.97;;;10.50;99.90;;;;;;5105186;28;20410;-71
2023/12/09 12:47:45;;;;;;;2.40;2.20;;;10.60;99.90;;;;;;5101200;28;20279;-72
2023/12/09 12:50:11;;;;;;;2.70;2.40;;;10.90;99.90;;;;;;5078673;28;20442;-71